sensor_id;sensor_type;location;lat;lon;timestamp;temperature;humidity
8824;DHT22;4448;50.904;4.694;2023-07-02T00:01:42;19.00;99.90
8824;DHT22;4448;50.904;4.694;2023-07-02T00:04:07;18.90;99.90
8824;DHT22;4448;50.904;4.694;2023-07-02T00:06:39;18.90;99.90
8824;DHT22;4448;50.904;4.694;2023-07-02T00:09:06;18.90;99.90
8824;DHT22;4448;50.904;4.694;2023-07-02T00:11:32;18.90;99.90
8824;DHT22;4448;50.904;4.694;2023-07-02T00:13:57;18.80;99.90
8824;DHT22;4448;50.904;4.694;2023-07-02T00:16:23;18.80;99.90
8824;DHT22;4448;50.904;4.694;2023-07-02T00:18:48;18.90;99.90
8824;DHT22;4448;50.904;4.694;2023-07-02T00:21:18;18.90;99.90
8824;DHT22;4448;50.904;4.694;2023-07-02T00:23:44;18.80;99.90
8824;DHT22;4448;50.904;4.694;2023-07-02T00:26:10;18.80;99.90
8824;DHT22;4448;50.904;4.694;2023-07-02T00:28:36;18.80;99.90
8824;DHT22;4448;50.904;4.694;2023-07-02T00:31:01;18.80;99.90
8824;DHT22;4448;50.904;4.694;2023-07-02T00:33:27;18.80;99.90
8824;DHT22;4448;50.904;4.694;2023-07-02T00:35:54;18.80;99.90
8824;DHT22;4448;50.904;4.694;2023-07-02T00:38:21;18.80;99.90
8824;DHT22;4448;50.904;4.694;2023-07-02T00:40:46;18.80;99.90
8824;DHT22;4448;50.904;4.694;2023-07-02T00:43:12;18.70;99.90
8824;DHT22;4448;50.904;4.694;2023-07-02T00:45:41;18.70;99.90
8824;DHT22;4448;50.904;4.694;2023-07-02T00:48:07;18.70;99.90
8824;DHT22;4448;50.904;4.694;2023-07-02T00:50:32;18.90;99.90
8824;DHT22;4448;50.904;4.694;2023-07-02T00:52:58;18.80;99.90
8824;DHT22;4448;50.904;4.694;2023-07-02T00:55:25;18.70;99.90
8824;DHT22;4448;50.904;4.694;2023-07-02T00:57:50;18.70;99.90
8824;DHT22;4448;50.904;4.694;2023-07-02T01:00:16;18.70;99.90
8824;DHT22;4448;50.904;4.694;2023-07-02T01:02:42;18.70;99.90
8824;DHT22;4448;50.904;4.694;2023-07-02T01:05:15;18.70;99.90
8824;DHT22;4448;50.904;4.694;2023-07-02T01:07:41;18.70;99.90
8824;DHT22;4448;50.904;4.694;2023-07-02T01:10:07;18.80;99.90
8824;DHT22;4448;50.904;4.694;2023-07-02T01:12:34;18.70;99.90
8824;DHT22;4448;50.904;4.694;2023-07-02T01:15:02;18.80;99.90
8824;DHT22;4448;50.904;4.694;2023-07-02T01:17:31;18.80;99.90
8824;DHT22;4448;50.904;4.694;2023-07-02T01:20:09;18.80;99.90
8824;DHT22;4448;50.904;4.694;2023-07-02T01:22:36;18.70;99.90
8824;DHT22;4448;50.904;4.694;2023-07-02T01:25:02;18.80;99.90
8824;DHT22;4448;50.904;4.694;2023-07-02T01:27:28;18.80;99.90
8824;DHT22;4448;50.904;4.694;2023-07-02T01:29:54;18.80;99.90
8824;DHT22;4448;50.904;4.694;2023-07-02T01:32:21;18.80;99.90
8824;DHT22;4448;50.904;4.694;2023-07-02T01:34:47;18.80;99.90
8824;DHT22;4448;50.904;4.694;2023-07-02T01:37:18;18.80;99.90
8824;DHT22;4448;50.904;4.694;2023-07-02T01:39:44;18.70;99.90
8824;DHT22;4448;50.904;4.694;2023-07-02T01:42:12;18.80;99.90
8824;DHT22;4448;50.904;4.694;2023-07-02T01:44:38;18.70;99.90
8824;DHT22;4448;50.904;4.694;2023-07-02T01:47:04;18.70;99.90
8824;DHT22;4448;50.904;4.694;2023-07-02T01:49:30;18.80;99.90
8824;DHT22;4448;50.904;4.694;2023-07-02T01:51:56;18.80;99.90
8824;DHT22;4448;50.904;4.694;2023-07-02T01:54:24;18.70;99.90
8824;DHT22;4448;50.904;4.694;2023-07-02T01:56:52;18.70;99.90
8824;DHT22;4448;50.904;4.694;2023-07-02T01:59:18;18.70;99.90
8824;DHT22;4448;50.904;4.694;2023-07-02T02:01:44;18.70;99.90
8824;DHT22;4448;50.904;4.694;2023-07-02T02:04:10;18.70;99.90
8824;DHT22;4448;50.904;4.694;2023-07-02T02:06:37;18.70;99.90
8824;DHT22;4448;50.904;4.694;2023-07-02T02:09:03;18.80;99.90
8824;DHT22;4448;50.904;4.694;2023-07-02T02:11:30;18.80;99.90
8824;DHT22;4448;50.904;4.694;2023-07-02T02:13:57;18.70;99.90
8824;DHT22;4448;50.904;4.694;2023-07-02T02:16:22;18.80;99.90
8824;DHT22;4448;50.904;4.694;2023-07-02T02:18:48;18.70;99.90
8824;DHT22;4448;50.904;4.694;2023-07-02T02:21:17;18.70;99.90
8824;DHT22;4448;50.904;4.694;2023-07-02T02:23:43;18.70;99.90
8824;DHT22;4448;50.904;4.694;2023-07-02T02:26:09;18.70;99.90
8824;DHT22;4448;50.904;4.694;2023-07-02T02:28:35;18.70;99.90
8824;DHT22;4448;50.904;4.694;2023-07-02T02:31:01;18.70;99.90
8824;DHT22;4448;50.904;4.694;2023-07-02T02:33:26;18.80;99.90
8824;DHT22;4448;50.904;4.694;2023-07-02T02:35:52;18.80;99.90
8824;DHT22;4448;50.904;4.694;2023-07-02T02:38:18;18.70;99.90
8824;DHT22;4448;50.904;4.694;2023-07-02T02:40:43;18.70;99.90
8824;DHT22;4448;50.904;4.694;2023-07-02T02:43:09;18.80;99.90
8824;DHT22;4448;50.904;4.694;2023-07-02T02:45:35;18.70;99.90
8824;DHT22;4448;50.904;4.694;2023-07-02T02:48:00;18.70;99.90
8824;DHT22;4448;50.904;4.694;2023-07-02T02:50:26;18.70;99.90
8824;DHT22;4448;50.904;4.694;2023-07-02T02:52:52;18.70;99.90
8824;DHT22;4448;50.904;4.694;2023-07-02T02:55:18;18.70;99.90
8824;DHT22;4448;50.904;4.694;2023-07-02T02:57:44;18.60;99.90
8824;DHT22;4448;50.904;4.694;2023-07-02T03:00:10;18.60;99.90
8824;DHT22;4448;50.904;4.694;2023-07-02T03:02:37;18.70;99.90
8824;DHT22;4448;50.904;4.694;2023-07-02T03:05:03;18.60;99.90
8824;DHT22;4448;50.904;4.694;2023-07-02T03:07:29;18.60;99.90
8824;DHT22;4448;50.904;4.694;2023-07-02T03:09:55;18.60;99.90
8824;DHT22;4448;50.904;4.694;2023-07-02T03:12:22;18.60;99.90
8824;DHT22;4448;50.904;4.694;2023-07-02T03:14:47;18.60;99.90
8824;DHT22;4448;50.904;4.694;2023-07-02T03:17:18;18.60;99.90
8824;DHT22;4448;50.904;4.694;2023-07-02T03:19:44;18.60;99.90
8824;DHT22;4448;50.904;4.694;2023-07-02T03:22:10;18.50;99.90
8824;DHT22;4448;50.904;4.694;2023-07-02T03:24:36;18.50;99.90
8824;DHT22;4448;50.904;4.694;2023-07-02T03:27:01;18.40;99.90
8824;DHT22;4448;50.904;4.694;2023-07-02T03:29:27;18.50;99.90
8824;DHT22;4448;50.904;4.694;2023-07-02T03:31:52;18.50;99.90
8824;DHT22;4448;50.904;4.694;2023-07-02T03:34:18;18.50;99.90
8824;DHT22;4448;50.904;4.694;2023-07-02T03:36:44;18.50;99.90
8824;DHT22;4448;50.904;4.694;2023-07-02T03:39:10;18.50;99.90
8824;DHT22;4448;50.904;4.694;2023-07-02T03:41:35;18.40;99.90
8824;DHT22;4448;50.904;4.694;2023-07-02T03:44:01;18.50;99.90
8824;DHT22;4448;50.904;4.694;2023-07-02T03:46:27;18.40;99.90
8824;DHT22;4448;50.904;4.694;2023-07-02T03:48:52;18.40;99.90
8824;DHT22;4448;50.904;4.694;2023-07-02T03:51:18;18.40;99.90
8824;DHT22;4448;50.904;4.694;2023-07-02T03:53:44;18.40;99.90
8824;DHT22;4448;50.904;4.694;2023-07-02T03:56:09;18.40;99.90
8824;DHT22;4448;50.904;4.694;2023-07-02T03:58:35;18.40;99.90
8824;DHT22;4448;50.904;4.694;2023-07-02T04:01:01;18.40;99.90
8824;DHT22;4448;50.904;4.694;2023-07-02T04:03:26;18.40;99.90
8824;DHT22;4448;50.904;4.694;2023-07-02T04:05:52;18.40;99.90
8824;DHT22;4448;50.904;4.694;2023-07-02T04:08:18;18.30;99.90
8824;DHT22;4448;50.904;4.694;2023-07-02T04:10:46;18.30;99.90
8824;DHT22;4448;50.904;4.694;2023-07-02T04:13:12;18.40;99.90
8824;DHT22;4448;50.904;4.694;2023-07-02T04:15:37;18.30;99.90
8824;DHT22;4448;50.904;4.694;2023-07-02T04:18:03;18.30;99.90
8824;DHT22;4448;50.904;4.694;2023-07-02T04:20:28;18.30;99.90
8824;DHT22;4448;50.904;4.694;2023-07-02T04:22:54;18.30;99.90
8824;DHT22;4448;50.904;4.694;2023-07-02T04:25:20;18.30;99.90
8824;DHT22;4448;50.904;4.694;2023-07-02T04:27:46;18.30;99.90
8824;DHT22;4448;50.904;4.694;2023-07-02T04:30:12;18.40;99.90
8824;DHT22;4448;50.904;4.694;2023-07-02T04:32:39;18.30;99.90
8824;DHT22;4448;50.904;4.694;2023-07-02T04:35:08;18.30;99.90
8824;DHT22;4448;50.904;4.694;2023-07-02T04:37:35;18.30;99.90
8824;DHT22;4448;50.904;4.694;2023-07-02T04:40:01;18.30;99.90
8824;DHT22;4448;50.904;4.694;2023-07-02T04:42:32;18.30;99.90
8824;DHT22;4448;50.904;4.694;2023-07-02T04:45:00;18.30;99.90
8824;DHT22;4448;50.904;4.694;2023-07-02T04:47:29;18.30;99.90
8824;DHT22;4448;50.904;4.694;2023-07-02T04:49:54;18.20;99.90
8824;DHT22;4448;50.904;4.694;2023-07-02T04:52:20;18.30;99.90
8824;DHT22;4448;50.904;4.694;2023-07-02T04:54:45;18.30;99.90
8824;DHT22;4448;50.904;4.694;2023-07-02T04:57:11;18.20;99.90
8824;DHT22;4448;50.904;4.694;2023-07-02T04:59:39;18.30;99.90
8824;DHT22;4448;50.904;4.694;2023-07-02T05:02:04;18.20;99.90
8824;DHT22;4448;50.904;4.694;2023-07-02T05:04:30;18.30;99.90
8824;DHT22;4448;50.904;4.694;2023-07-02T05:06:56;18.30;99.90
8824;DHT22;4448;50.904;4.694;2023-07-02T05:09:21;18.30;99.90
8824;DHT22;4448;50.904;4.694;2023-07-02T05:11:47;18.30;99.90
8824;DHT22;4448;50.904;4.694;2023-07-02T05:14:12;18.40;99.90
8824;DHT22;4448;50.904;4.694;2023-07-02T05:16:38;18.40;99.90
8824;DHT22;4448;50.904;4.694;2023-07-02T05:19:04;18.40;99.90
8824;DHT22;4448;50.904;4.694;2023-07-02T05:21:29;18.40;99.90
8824;DHT22;4448;50.904;4.694;2023-07-02T05:23:55;18.40;99.90
8824;DHT22;4448;50.904;4.694;2023-07-02T05:26:20;18.50;99.90
8824;DHT22;4448;50.904;4.694;2023-07-02T05:28:46;18.50;99.90
8824;DHT22;4448;50.904;4.694;2023-07-02T05:31:12;18.50;99.90
8824;DHT22;4448;50.904;4.694;2023-07-02T05:33:38;18.50;99.90
8824;DHT22;4448;50.904;4.694;2023-07-02T05:36:04;18.60;99.90
8824;DHT22;4448;50.904;4.694;2023-07-02T05:38:30;18.50;99.90
8824;DHT22;4448;50.904;4.694;2023-07-02T05:40:56;18.50;99.90
8824;DHT22;4448;50.904;4.694;2023-07-02T05:43:21;18.50;99.90
8824;DHT22;4448;50.904;4.694;2023-07-02T05:45:47;18.50;99.90
8824;DHT22;4448;50.904;4.694;2023-07-02T05:48:12;18.60;99.90
8824;DHT22;4448;50.904;4.694;2023-07-02T05:50:38;18.60;99.90
8824;DHT22;4448;50.904;4.694;2023-07-02T05:53:03;18.60;99.90
8824;DHT22;4448;50.904;4.694;2023-07-02T05:55:29;18.70;99.90
8824;DHT22;4448;50.904;4.694;2023-07-02T05:57:55;18.70;99.90
8824;DHT22;4448;50.904;4.694;2023-07-02T06:00:23;18.70;99.90
8824;DHT22;4448;50.904;4.694;2023-07-02T06:02:48;18.80;99.90
8824;DHT22;4448;50.904;4.694;2023-07-02T06:05:14;18.80;99.90
8824;DHT22;4448;50.904;4.694;2023-07-02T06:07:39;18.80;99.90
8824;DHT22;4448;50.904;4.694;2023-07-02T06:10:05;18.90;99.90
8824;DHT22;4448;50.904;4.694;2023-07-02T06:12:31;18.80;99.90
8824;DHT22;4448;50.904;4.694;2023-07-02T06:14:56;18.90;99.90
8824;DHT22;4448;50.904;4.694;2023-07-02T06:17:22;18.90;99.90
8824;DHT22;4448;50.904;4.694;2023-07-02T06:19:48;19.00;99.90
8824;DHT22;4448;50.904;4.694;2023-07-02T06:22:13;18.90;99.90
8824;DHT22;4448;50.904;4.694;2023-07-02T06:24:39;18.90;99.90
8824;DHT22;4448;50.904;4.694;2023-07-02T06:27:05;18.90;99.90
8824;DHT22;4448;50.904;4.694;2023-07-02T06:29:30;19.00;99.90
8824;DHT22;4448;50.904;4.694;2023-07-02T06:31:56;19.00;99.90
8824;DHT22;4448;50.904;4.694;2023-07-02T06:34:21;19.00;99.90
8824;DHT22;4448;50.904;4.694;2023-07-02T06:36:48;19.10;99.90
8824;DHT22;4448;50.904;4.694;2023-07-02T06:39:13;19.20;99.90
8824;DHT22;4448;50.904;4.694;2023-07-02T06:41:39;19.10;99.90
8824;DHT22;4448;50.904;4.694;2023-07-02T06:44:05;19.10;99.90
8824;DHT22;4448;50.904;4.694;2023-07-02T06:46:30;19.10;99.90
8824;DHT22;4448;50.904;4.694;2023-07-02T06:48:56;19.40;99.90
8824;DHT22;4448;50.904;4.694;2023-07-02T06:51:22;19.10;99.90
8824;DHT22;4448;50.904;4.694;2023-07-02T06:53:48;19.20;99.90
8824;DHT22;4448;50.904;4.694;2023-07-02T06:56:14;19.30;99.90
8824;DHT22;4448;50.904;4.694;2023-07-02T06:58:42;19.90;99.90
8824;DHT22;4448;50.904;4.694;2023-07-02T07:01:08;19.30;99.90
8824;DHT22;4448;50.904;4.694;2023-07-02T07:03:35;19.30;99.90
8824;DHT22;4448;50.904;4.694;2023-07-02T07:06:02;19.40;99.90
8824;DHT22;4448;50.904;4.694;2023-07-02T07:08:28;19.40;99.90
8824;DHT22;4448;50.904;4.694;2023-07-02T07:10:53;19.50;99.90
8824;DHT22;4448;50.904;4.694;2023-07-02T07:13:19;19.60;99.90
8824;DHT22;4448;50.904;4.694;2023-07-02T07:15:45;19.50;99.90
8824;DHT22;4448;50.904;4.694;2023-07-02T07:18:10;19.50;99.90
8824;DHT22;4448;50.904;4.694;2023-07-02T07:20:38;19.60;99.90
8824;DHT22;4448;50.904;4.694;2023-07-02T07:23:03;19.60;99.90
8824;DHT22;4448;50.904;4.694;2023-07-02T07:25:29;19.70;99.90
8824;DHT22;4448;50.904;4.694;2023-07-02T07:27:55;19.80;99.90
8824;DHT22;4448;50.904;4.694;2023-07-02T07:30:21;19.80;99.90
8824;DHT22;4448;50.904;4.694;2023-07-02T07:32:50;19.80;99.90
8824;DHT22;4448;50.904;4.694;2023-07-02T07:35:17;19.80;99.90
8824;DHT22;4448;50.904;4.694;2023-07-02T07:37:43;19.90;99.90
8824;DHT22;4448;50.904;4.694;2023-07-02T07:40:09;19.90;99.90
8824;DHT22;4448;50.904;4.694;2023-07-02T07:42:34;20.00;99.90
8824;DHT22;4448;50.904;4.694;2023-07-02T07:45:02;19.90;99.90
8824;DHT22;4448;50.904;4.694;2023-07-02T07:47:28;20.10;99.90
8824;DHT22;4448;50.904;4.694;2023-07-02T07:49:54;20.00;99.90
8824;DHT22;4448;50.904;4.694;2023-07-02T07:52:20;20.10;99.90
8824;DHT22;4448;50.904;4.694;2023-07-02T07:54:48;20.10;99.90
8824;DHT22;4448;50.904;4.694;2023-07-02T07:57:13;20.30;99.90
8824;DHT22;4448;50.904;4.694;2023-07-02T07:59:39;20.20;99.90
8824;DHT22;4448;50.904;4.694;2023-07-02T08:02:05;20.20;99.90
8824;DHT22;4448;50.904;4.694;2023-07-02T08:04:31;20.20;99.90
8824;DHT22;4448;50.904;4.694;2023-07-02T08:06:57;20.30;99.90
8824;DHT22;4448;50.904;4.694;2023-07-02T08:09:23;20.30;99.90
8824;DHT22;4448;50.904;4.694;2023-07-02T08:11:50;20.30;99.90
8824;DHT22;4448;50.904;4.694;2023-07-02T08:14:17;20.40;99.90
8824;DHT22;4448;50.904;4.694;2023-07-02T08:16:44;20.60;99.90
8824;DHT22;4448;50.904;4.694;2023-07-02T08:19:10;20.40;99.90
8824;DHT22;4448;50.904;4.694;2023-07-02T08:21:35;20.40;99.90
8824;DHT22;4448;50.904;4.694;2023-07-02T08:24:02;20.50;99.90
8824;DHT22;4448;50.904;4.694;2023-07-02T08:26:28;20.50;99.90
8824;DHT22;4448;50.904;4.694;2023-07-02T08:28:54;20.60;99.90
8824;DHT22;4448;50.904;4.694;2023-07-02T08:31:19;20.60;99.90
8824;DHT22;4448;50.904;4.694;2023-07-02T08:33:45;20.70;99.90
8824;DHT22;4448;50.904;4.694;2023-07-02T08:36:11;20.60;99.90
8824;DHT22;4448;50.904;4.694;2023-07-02T08:38:36;20.80;99.90
8824;DHT22;4448;50.904;4.694;2023-07-02T08:41:04;20.80;99.90
8824;DHT22;4448;50.904;4.694;2023-07-02T08:43:30;20.90;99.90
8824;DHT22;4448;50.904;4.694;2023-07-02T08:45:57;20.80;99.90
8824;DHT22;4448;50.904;4.694;2023-07-02T08:48:23;20.90;99.90
8824;DHT22;4448;50.904;4.694;2023-07-02T08:50:50;20.90;99.90
8824;DHT22;4448;50.904;4.694;2023-07-02T08:53:15;21.00;99.90
8824;DHT22;4448;50.904;4.694;2023-07-02T08:55:41;21.10;99.90
8824;DHT22;4448;50.904;4.694;2023-07-02T08:58:07;21.20;99.90
8824;DHT22;4448;50.904;4.694;2023-07-02T09:00:32;21.10;99.90
8824;DHT22;4448;50.904;4.694;2023-07-02T09:03:17;21.20;99.90
8824;DHT22;4448;50.904;4.694;2023-07-02T09:05:50;21.30;99.90
8824;DHT22;4448;50.904;4.694;2023-07-02T09:08:27;21.30;99.90
8824;DHT22;4448;50.904;4.694;2023-07-02T09:10:54;21.30;99.90
8824;DHT22;4448;50.904;4.694;2023-07-02T09:13:19;21.40;99.90
8824;DHT22;4448;50.904;4.694;2023-07-02T09:15:45;21.40;99.90
8824;DHT22;4448;50.904;4.694;2023-07-02T09:18:22;21.60;99.90
8824;DHT22;4448;50.904;4.694;2023-07-02T09:20:54;21.50;99.90
8824;DHT22;4448;50.904;4.694;2023-07-02T09:23:20;21.60;99.90
8824;DHT22;4448;50.904;4.694;2023-07-02T09:25:46;21.60;99.90
8824;DHT22;4448;50.904;4.694;2023-07-02T09:28:21;21.50;99.90
8824;DHT22;4448;50.904;4.694;2023-07-02T09:30:52;21.60;99.90
8824;DHT22;4448;50.904;4.694;2023-07-02T09:33:18;21.50;99.90
8824;DHT22;4448;50.904;4.694;2023-07-02T09:35:44;21.50;99.90
8824;DHT22;4448;50.904;4.694;2023-07-02T09:38:11;21.70;99.90
8824;DHT22;4448;50.904;4.694;2023-07-02T09:40:46;21.70;99.90
8824;DHT22;4448;50.904;4.694;2023-07-02T09:43:14;21.70;99.90
8824;DHT22;4448;50.904;4.694;2023-07-02T09:45:45;21.70;99.90
8824;DHT22;4448;50.904;4.694;2023-07-02T09:48:15;21.60;99.90
8824;DHT22;4448;50.904;4.694;2023-07-02T09:50:43;21.60;99.90
8824;DHT22;4448;50.904;4.694;2023-07-02T09:53:10;21.60;99.90
8824;DHT22;4448;50.904;4.694;2023-07-02T09:55:37;21.60;99.90
8824;DHT22;4448;50.904;4.694;2023-07-02T09:58:03;21.50;99.90
8824;DHT22;4448;50.904;4.694;2023-07-02T10:00:29;21.60;99.90
8824;DHT22;4448;50.904;4.694;2023-07-02T10:02:54;21.60;99.90
8824;DHT22;4448;50.904;4.694;2023-07-02T10:05:38;21.70;99.90
8824;DHT22;4448;50.904;4.694;2023-07-02T10:08:15;21.60;99.90
8824;DHT22;4448;50.904;4.694;2023-07-02T10:10:44;21.70;99.90
8824;DHT22;4448;50.904;4.694;2023-07-02T10:13:10;21.60;99.90
8824;DHT22;4448;50.904;4.694;2023-07-02T10:15:36;21.60;99.90
8824;DHT22;4448;50.904;4.694;2023-07-02T10:18:05;21.60;99.90
8824;DHT22;4448;50.904;4.694;2023-07-02T10:20:41;21.60;99.90
8824;DHT22;4448;50.904;4.694;2023-07-02T10:23:09;21.70;99.90
8824;DHT22;4448;50.904;4.694;2023-07-02T10:25:36;21.60;99.90
8824;DHT22;4448;50.904;4.694;2023-07-02T10:28:17;21.60;99.90
8824;DHT22;4448;50.904;4.694;2023-07-02T10:30:44;21.50;99.90
8824;DHT22;4448;50.904;4.694;2023-07-02T10:33:12;21.60;99.90
8824;DHT22;4448;50.904;4.694;2023-07-02T10:35:39;21.50;99.90
8824;DHT22;4448;50.904;4.694;2023-07-02T10:38:07;21.40;99.90
8824;DHT22;4448;50.904;4.694;2023-07-02T10:40:33;21.40;99.90
8824;DHT22;4448;50.904;4.694;2023-07-02T10:42:59;21.40;99.90
8824;DHT22;4448;50.904;4.694;2023-07-02T10:45:35;21.40;99.90
8824;DHT22;4448;50.904;4.694;2023-07-02T10:48:08;21.40;99.90
8824;DHT22;4448;50.904;4.694;2023-07-02T10:50:34;21.60;99.90
8824;DHT22;4448;50.904;4.694;2023-07-02T10:53:00;21.90;99.90
8824;DHT22;4448;50.904;4.694;2023-07-02T10:55:26;21.90;99.90
8824;DHT22;4448;50.904;4.694;2023-07-02T10:58:07;22.00;99.90
8824;DHT22;4448;50.904;4.694;2023-07-02T11:00:42;22.00;99.90
8824;DHT22;4448;50.904;4.694;2023-07-02T11:03:19;22.10;99.90
8824;DHT22;4448;50.904;4.694;2023-07-02T11:05:45;22.00;99.90
8824;DHT22;4448;50.904;4.694;2023-07-02T11:08:12;21.90;99.90
8824;DHT22;4448;50.904;4.694;2023-07-02T11:10:38;21.90;99.90
8824;DHT22;4448;50.904;4.694;2023-07-02T11:13:24;21.90;99.90
8824;DHT22;4448;50.904;4.694;2023-07-02T11:15:49;21.80;99.90
8824;DHT22;4448;50.904;4.694;2023-07-02T11:18:16;21.80;99.90
8824;DHT22;4448;50.904;4.694;2023-07-02T11:20:43;21.80;99.90
8824;DHT22;4448;50.904;4.694;2023-07-02T11:23:19;21.80;99.90
8824;DHT22;4448;50.904;4.694;2023-07-02T11:26:01;21.80;99.90
8824;DHT22;4448;50.904;4.694;2023-07-02T11:28:27;21.90;99.90
8824;DHT22;4448;50.904;4.694;2023-07-02T11:30:54;21.90;99.90
8824;DHT22;4448;50.904;4.694;2023-07-02T11:33:34;21.90;99.90
8824;DHT22;4448;50.904;4.694;2023-07-02T11:35:59;22.10;99.90
8824;DHT22;4448;50.904;4.694;2023-07-02T11:38:25;22.30;99.90
8824;DHT22;4448;50.904;4.694;2023-07-02T11:40:51;22.40;99.90
8824;DHT22;4448;50.904;4.694;2023-07-02T11:43:16;22.40;99.90
8824;DHT22;4448;50.904;4.694;2023-07-02T11:45:43;22.50;99.90
8824;DHT22;4448;50.904;4.694;2023-07-02T11:48:09;22.50;99.90
8824;DHT22;4448;50.904;4.694;2023-07-02T11:50:34;22.40;99.90
8824;DHT22;4448;50.904;4.694;2023-07-02T11:53:00;22.50;99.90
8824;DHT22;4448;50.904;4.694;2023-07-02T11:55:25;22.50;99.90
8824;DHT22;4448;50.904;4.694;2023-07-02T11:57:51;22.50;99.90
8824;DHT22;4448;50.904;4.694;2023-07-02T12:00:17;22.50;99.90
8824;DHT22;4448;50.904;4.694;2023-07-02T12:02:43;22.40;99.90
8824;DHT22;4448;50.904;4.694;2023-07-02T12:05:08;22.50;99.90
8824;DHT22;4448;50.904;4.694;2023-07-02T12:07:34;22.40;99.90
8824;DHT22;4448;50.904;4.694;2023-07-02T12:10:00;22.60;99.90
8824;DHT22;4448;50.904;4.694;2023-07-02T12:12:26;22.70;99.90
8824;DHT22;4448;50.904;4.694;2023-07-02T12:14:51;22.70;99.90
8824;DHT22;4448;50.904;4.694;2023-07-02T12:17:17;22.80;99.90
8824;DHT22;4448;50.904;4.694;2023-07-02T12:19:42;22.90;99.90
8824;DHT22;4448;50.904;4.694;2023-07-02T12:22:08;23.10;99.90
8824;DHT22;4448;50.904;4.694;2023-07-02T12:24:34;23.20;99.90
8824;DHT22;4448;50.904;4.694;2023-07-02T12:26:59;23.40;99.90
8824;DHT22;4448;50.904;4.694;2023-07-02T12:29:25;23.50;99.90
8824;DHT22;4448;50.904;4.694;2023-07-02T12:31:51;23.50;99.90
8824;DHT22;4448;50.904;4.694;2023-07-02T12:34:16;23.50;99.90
8824;DHT22;4448;50.904;4.694;2023-07-02T12:36:42;23.60;99.90
8824;DHT22;4448;50.904;4.694;2023-07-02T12:39:08;23.70;99.90
8824;DHT22;4448;50.904;4.694;2023-07-02T12:41:34;23.70;99.90
8824;DHT22;4448;50.904;4.694;2023-07-02T12:43:59;23.80;99.90
8824;DHT22;4448;50.904;4.694;2023-07-02T12:46:25;23.80;99.90
8824;DHT22;4448;50.904;4.694;2023-07-02T12:48:51;23.80;99.90
8824;DHT22;4448;50.904;4.694;2023-07-02T12:51:16;23.90;99.90
8824;DHT22;4448;50.904;4.694;2023-07-02T12:53:42;24.00;99.90
8824;DHT22;4448;50.904;4.694;2023-07-02T12:56:07;24.00;99.90
8824;DHT22;4448;50.904;4.694;2023-07-02T12:58:33;24.00;99.90
8824;DHT22;4448;50.904;4.694;2023-07-02T13:00:59;24.00;99.90
8824;DHT22;4448;50.904;4.694;2023-07-02T13:03:25;24.10;99.90
8824;DHT22;4448;50.904;4.694;2023-07-02T13:05:51;24.10;99.90
8824;DHT22;4448;50.904;4.694;2023-07-02T13:08:17;24.20;99.90
8824;DHT22;4448;50.904;4.694;2023-07-02T13:10:43;24.20;99.90
8824;DHT22;4448;50.904;4.694;2023-07-02T13:13:09;24.20;99.90
8824;DHT22;4448;50.904;4.694;2023-07-02T13:15:35;24.20;99.90
8824;DHT22;4448;50.904;4.694;2023-07-02T13:18:01;24.20;99.90
8824;DHT22;4448;50.904;4.694;2023-07-02T13:20:26;24.10;99.90
8824;DHT22;4448;50.904;4.694;2023-07-02T13:22:52;24.10;99.90
8824;DHT22;4448;50.904;4.694;2023-07-02T13:25:18;24.10;99.90
8824;DHT22;4448;50.904;4.694;2023-07-02T13:27:43;24.10;99.90
8824;DHT22;4448;50.904;4.694;2023-07-02T13:30:09;24.20;99.90
8824;DHT22;4448;50.904;4.694;2023-07-02T13:32:35;24.20;99.90
8824;DHT22;4448;50.904;4.694;2023-07-02T13:35:01;24.30;99.90
8824;DHT22;4448;50.904;4.694;2023-07-02T13:37:26;24.40;99.90
8824;DHT22;4448;50.904;4.694;2023-07-02T13:39:52;24.50;99.90
8824;DHT22;4448;50.904;4.694;2023-07-02T13:42:18;24.50;99.90
8824;DHT22;4448;50.904;4.694;2023-07-02T13:44:44;24.60;99.90
8824;DHT22;4448;50.904;4.694;2023-07-02T13:47:09;24.60;99.90
8824;DHT22;4448;50.904;4.694;2023-07-02T13:49:36;24.70;99.90
8824;DHT22;4448;50.904;4.694;2023-07-02T13:52:02;24.60;99.90
8824;DHT22;4448;50.904;4.694;2023-07-02T13:54:28;24.60;99.90
8824;DHT22;4448;50.904;4.694;2023-07-02T13:56:55;24.60;99.90
8824;DHT22;4448;50.904;4.694;2023-07-02T13:59:21;24.60;99.90
8824;DHT22;4448;50.904;4.694;2023-07-02T14:01:47;24.60;99.90
8824;DHT22;4448;50.904;4.694;2023-07-02T14:04:13;24.50;99.90
8824;DHT22;4448;50.904;4.694;2023-07-02T14:06:39;24.50;99.90
8824;DHT22;4448;50.904;4.694;2023-07-02T14:09:05;24.50;99.90
8824;DHT22;4448;50.904;4.694;2023-07-02T14:11:35;24.50;99.90
8824;DHT22;4448;50.904;4.694;2023-07-02T14:14:00;24.50;99.90
8824;DHT22;4448;50.904;4.694;2023-07-02T14:16:26;24.50;99.90
8824;DHT22;4448;50.904;4.694;2023-07-02T14:18:52;24.50;99.90
8824;DHT22;4448;50.904;4.694;2023-07-02T14:21:18;24.40;99.90
8824;DHT22;4448;50.904;4.694;2023-07-02T14:23:44;24.40;99.90
8824;DHT22;4448;50.904;4.694;2023-07-02T14:26:09;24.40;99.90
8824;DHT22;4448;50.904;4.694;2023-07-02T14:28:35;24.50;99.90
8824;DHT22;4448;50.904;4.694;2023-07-02T14:31:03;24.50;99.90
8824;DHT22;4448;50.904;4.694;2023-07-02T14:33:31;24.50;99.90
8824;DHT22;4448;50.904;4.694;2023-07-02T14:35:59;24.40;99.90
8824;DHT22;4448;50.904;4.694;2023-07-02T14:38:25;24.40;99.90
8824;DHT22;4448;50.904;4.694;2023-07-02T14:40:51;24.40;99.90
8824;DHT22;4448;50.904;4.694;2023-07-02T14:43:18;24.40;99.90
8824;DHT22;4448;50.904;4.694;2023-07-02T14:45:48;24.30;99.90
8824;DHT22;4448;50.904;4.694;2023-07-02T14:48:14;24.30;99.90
8824;DHT22;4448;50.904;4.694;2023-07-02T14:50:44;24.30;99.90
8824;DHT22;4448;50.904;4.694;2023-07-02T14:53:10;24.30;99.90
8824;DHT22;4448;50.904;4.694;2023-07-02T14:55:36;24.00;99.90
8824;DHT22;4448;50.904;4.694;2023-07-02T14:58:02;24.30;99.90
8824;DHT22;4448;50.904;4.694;2023-07-02T15:00:27;24.30;99.90
8824;DHT22;4448;50.904;4.694;2023-07-02T15:02:53;24.30;99.90
8824;DHT22;4448;50.904;4.694;2023-07-02T15:05:18;24.30;99.90
8824;DHT22;4448;50.904;4.694;2023-07-02T15:07:44;24.20;99.90
8824;DHT22;4448;50.904;4.694;2023-07-02T15:10:10;24.30;99.90
8824;DHT22;4448;50.904;4.694;2023-07-02T15:12:35;23.80;99.90
8824;DHT22;4448;50.904;4.694;2023-07-02T15:15:02;24.40;99.90
8824;DHT22;4448;50.904;4.694;2023-07-02T15:17:28;24.10;99.90
8824;DHT22;4448;50.904;4.694;2023-07-02T15:19:53;24.10;99.90
8824;DHT22;4448;50.904;4.694;2023-07-02T15:22:19;24.10;99.90
8824;DHT22;4448;50.904;4.694;2023-07-02T15:24:44;24.00;99.90
8824;DHT22;4448;50.904;4.694;2023-07-02T15:27:10;24.00;99.90
8824;DHT22;4448;50.904;4.694;2023-07-02T15:29:36;24.00;99.90
8824;DHT22;4448;50.904;4.694;2023-07-02T15:32:02;23.90;99.90
8824;DHT22;4448;50.904;4.694;2023-07-02T15:34:27;23.90;99.90
8824;DHT22;4448;50.904;4.694;2023-07-02T15:36:53;23.90;99.90
8824;DHT22;4448;50.904;4.694;2023-07-02T15:39:20;23.90;99.90
8824;DHT22;4448;50.904;4.694;2023-07-02T15:41:48;23.90;99.90
8824;DHT22;4448;50.904;4.694;2023-07-02T15:44:14;23.80;99.90
8824;DHT22;4448;50.904;4.694;2023-07-02T15:46:40;23.80;99.90
8824;DHT22;4448;50.904;4.694;2023-07-02T15:49:06;23.80;99.90
8824;DHT22;4448;50.904;4.694;2023-07-02T15:51:32;24.00;99.90
8824;DHT22;4448;50.904;4.694;2023-07-02T15:54:02;23.70;99.90
8824;DHT22;4448;50.904;4.694;2023-07-02T15:56:29;23.70;99.90
8824;DHT22;4448;50.904;4.694;2023-07-02T15:58:58;23.70;99.90